createdAt,value
2022-09-09T00:00:36.258Z,146.40
2022-09-09T00:01:36.252Z,154.00
2022-09-09T00:02:36.354Z,137.20
2022-09-09T00:03:36.310Z,131.90
2022-09-09T00:04:36.241Z,144.50
2022-09-09T00:05:36.267Z,153.10
2022-09-09T00:06:36.232Z,130.90
2022-09-09T00:07:36.224Z,142.00
2022-09-09T00:08:36.305Z,137.70
2022-09-09T00:09:36.218Z,143.20
2022-09-09T00:10:36.212Z,142.90
2022-09-09T00:11:36.206Z,137.30
2022-09-09T00:12:36.201Z,142.20
2022-09-09T00:13:36.203Z,141.10
2022-09-09T00:14:36.192Z,135.40
2022-09-09T00:15:36.218Z,136.30
2022-09-09T00:16:36.179Z,131.10
2022-09-09T00:17:36.186Z,120.50
2022-09-09T00:18:36.323Z,120.80
2022-09-09T00:19:36.170Z,116.20
2022-09-09T00:20:36.161Z,118.70
2022-09-09T00:21:36.161Z,117.40
2022-09-09T00:22:36.154Z,114.60
2022-09-09T00:23:36.147Z,121.60
2022-09-09T00:24:36.173Z,121.60
2022-09-09T00:25:36.147Z,123.00
2022-09-09T00:26:36.133Z,119.20
2022-09-09T00:27:36.133Z,120.90
2022-09-09T00:28:36.267Z,124.50
2022-09-09T00:29:36.124Z,116.00
2022-09-09T00:30:36.174Z,115.30
2022-09-09T00:31:36.116Z,114.80
2022-09-09T00:32:36.106Z,118.70
2022-09-09T00:33:36.103Z,127.30
2022-09-09T00:34:36.098Z,116.40
2022-09-09T00:35:36.091Z,109.40
2022-09-09T00:36:36.089Z,113.50
2022-09-09T00:37:36.085Z,105.50
2022-09-09T00:38:36.289Z,108.00
2022-09-09T00:39:36.126Z,108.00
2022-09-09T00:40:36.065Z,112.40
2022-09-09T00:41:36.071Z,112.70
2022-09-09T00:42:36.059Z,110.60
2022-09-09T00:43:36.054Z,110.80
2022-09-09T00:44:36.050Z,108.00
2022-09-09T00:45:36.048Z,118.70
2022-09-09T00:46:36.087Z,111.90
2022-09-09T00:47:36.035Z,119.60
2022-09-09T00:48:36.188Z,117.00
2022-09-09T00:49:36.027Z,115.00
2022-09-09T00:50:36.021Z,121.40
2022-09-09T00:51:36.017Z,111.80
2022-09-09T00:52:36.022Z,118.40
2022-09-09T00:53:36.009Z,117.50
2022-09-09T00:54:36.000Z,121.70
2022-09-09T00:55:35.996Z,108.20
2022-09-09T00:56:35.996Z,107.60
2022-09-09T00:57:35.987Z,118.70
2022-09-09T00:58:36.148Z,111.10
2022-09-09T00:59:35.978Z,119.90
2022-09-09T01:00:35.973Z,133.40
2022-09-09T01:01:36.012Z,125.50
2022-09-09T01:02:36.038Z,122.80
2022-09-09T01:03:35.962Z,127.60
2022-09-09T01:04:35.948Z,120.50
2022-09-09T01:05:35.956Z,115.40
2022-09-09T01:06:35.939Z,113.40
2022-09-09T01:07:35.936Z,117.40
2022-09-09T01:08:36.010Z,116.20
2022-09-09T01:09:35.931Z,129.10
2022-09-09T01:10:35.923Z,128.90
2022-09-09T01:11:35.918Z,121.80
2022-09-09T01:12:35.914Z,122.90
2022-09-09T01:13:35.907Z,123.60
2022-09-09T01:14:35.902Z,134.00
2022-09-09T01:15:35.897Z,129.40
2022-09-09T01:16:35.952Z,119.40
2022-09-09T01:17:35.888Z,129.50
2022-09-09T01:18:35.960Z,126.40
2022-09-09T01:19:35.880Z,126.70
2022-09-09T01:20:35.881Z,121.70
2022-09-09T01:21:35.870Z,120.20
2022-09-09T01:22:35.865Z,126.10
2022-09-09T01:23:35.856Z,121.00
2022-09-09T01:24:35.854Z,129.70
2022-09-09T01:25:35.850Z,126.10
2022-09-09T01:26:35.850Z,131.00
2022-09-09T01:27:35.841Z,126.90
2022-09-09T01:28:35.983Z,123.70
2022-09-09T01:29:35.829Z,124.70
2022-09-09T01:30:35.977Z,124.70
2022-09-09T01:31:35.822Z,126.90
2022-09-09T01:32:35.812Z,120.80
2022-09-09T01:33:35.809Z,125.50
2022-09-09T01:34:35.803Z,121.20
2022-09-09T01:35:35.807Z,122.30
2022-09-09T01:36:35.798Z,130.10
2022-09-09T01:37:35.791Z,137.40
2022-09-09T01:38:35.939Z,129.80
2022-09-09T01:39:35.807Z,141.80
2022-09-09T01:40:35.771Z,131.70
2022-09-09T01:41:35.771Z,130.80
2022-09-09T01:42:35.760Z,132.70
2022-09-09T01:43:35.765Z,130.10
2022-09-09T01:44:35.755Z,124.90
2022-09-09T01:45:35.833Z,128.60
2022-09-09T01:46:35.746Z,132.30
2022-09-09T01:47:35.742Z,129.90
2022-09-09T01:48:35.836Z,132.00
2022-09-09T01:49:35.729Z,128.70
2022-09-09T01:50:35.723Z,135.40
2022-09-09T01:51:35.718Z,131.20
2022-09-09T01:52:35.714Z,127.10
2022-09-09T01:53:35.709Z,138.50
2022-09-09T01:54:35.711Z,129.70
2022-09-09T01:55:35.701Z,135.50
2022-09-09T01:56:35.699Z,130.80
2022-09-09T01:57:35.690Z,124.80
2022-09-09T01:58:35.802Z,132.90
2022-09-09T01:59:35.684Z,130.50
2022-09-09T02:00:35.678Z,137.40
2022-09-09T02:01:35.709Z,126.70
2022-09-09T02:02:35.723Z,134.00
2022-09-09T02:03:35.660Z,123.70
2022-09-09T02:04:35.658Z,122.30
2022-09-09T02:05:35.650Z,126.00
2022-09-09T02:06:35.642Z,134.80
2022-09-09T02:07:35.637Z,138.80
2022-09-09T02:08:35.739Z,133.40
2022-09-09T02:09:35.634Z,122.30
2022-09-09T02:10:35.624Z,123.00
2022-09-09T02:11:35.627Z,124.30
2022-09-09T02:12:35.615Z,129.10
2022-09-09T02:13:35.608Z,128.10
2022-09-09T02:14:35.603Z,125.00
2022-09-09T02:15:35.595Z,128.60
2022-09-09T02:16:35.652Z,119.30
2022-09-09T02:17:35.594Z,126.60
2022-09-09T02:18:35.775Z,125.30
2022-09-09T02:19:35.581Z,122.80
2022-09-09T02:20:35.577Z,135.30
2022-09-09T02:21:35.568Z,139.00
2022-09-09T02:22:35.562Z,142.90
2022-09-09T02:23:35.555Z,144.60
2022-09-09T02:24:35.553Z,140.30
2022-09-09T02:25:35.547Z,130.30
2022-09-09T02:26:35.547Z,127.20
2022-09-09T02:27:35.536Z,126.70
2022-09-09T02:28:35.760Z,128.00
2022-09-09T02:29:35.526Z,133.60
2022-09-09T02:30:35.600Z,145.20
2022-09-09T02:31:35.519Z,132.30
2022-09-09T02:32:35.512Z,137.20
2022-09-09T02:33:35.503Z,130.70
2022-09-09T02:34:35.510Z,133.60
2022-09-09T02:35:35.496Z,143.00
2022-09-09T02:36:35.492Z,126.10
2022-09-09T02:37:35.486Z,125.40
2022-09-09T02:38:35.661Z,129.90
2022-09-09T02:39:35.506Z,130.30
2022-09-09T02:40:35.468Z,129.10
2022-09-09T02:41:35.463Z,133.20
2022-09-09T02:42:35.460Z,138.10
2022-09-09T02:43:35.458Z,142.80
2022-09-09T02:44:35.453Z,137.90
2022-09-09T02:45:35.497Z,133.80
2022-09-09T02:46:35.441Z,133.60
2022-09-09T02:47:35.439Z,131.60
2022-09-09T02:48:35.534Z,145.70
2022-09-09T02:49:35.425Z,139.10
2022-09-09T02:50:36.131Z,144.20
2022-09-09T02:51:35.416Z,148.30
2022-09-09T02:52:35.411Z,138.70
2022-09-09T02:53:35.405Z,141.50
2022-09-09T02:54:35.401Z,142.60
2022-09-09T02:55:35.397Z,132.40
2022-09-09T02:56:35.386Z,127.90
2022-09-09T02:57:35.384Z,123.70
2022-09-09T02:58:35.482Z,132.10
2022-09-09T02:59:35.377Z,134.80
2022-09-09T03:00:35.369Z,130.60
2022-09-09T03:01:35.383Z,127.70
2022-09-09T03:02:35.373Z,132.20
2022-09-09T03:03:35.353Z,130.90
2022-09-09T03:04:35.348Z,128.90
2022-09-09T03:05:35.345Z,137.70
2022-09-09T03:06:35.336Z,135.30
2022-09-09T03:07:35.329Z,140.00
2022-09-09T03:08:35.466Z,142.30
2022-09-09T03:09:35.320Z,137.60
2022-09-09T03:10:35.323Z,142.20
2022-09-09T03:11:35.312Z,130.90
2022-09-09T03:12:35.311Z,139.10
2022-09-09T03:13:35.296Z,138.10
2022-09-09T03:14:35.295Z,135.60
2022-09-09T03:15:35.292Z,131.10
2022-09-09T03:16:35.428Z,134.80
2022-09-09T03:17:35.281Z,130.50
2022-09-09T03:18:35.404Z,129.70
2022-09-09T03:19:35.280Z,126.90
2022-09-09T03:20:35.267Z,127.60
2022-09-09T03:21:35.260Z,138.30
2022-09-09T03:22:35.254Z,145.80
2022-09-09T03:23:35.251Z,137.80
2022-09-09T03:24:35.243Z,144.40
2022-09-09T03:25:35.237Z,142.40
2022-09-09T03:26:35.233Z,144.40
2022-09-09T03:27:35.229Z,129.60
2022-09-09T03:28:35.517Z,123.20
2022-09-09T03:29:35.219Z,139.00
2022-09-09T03:30:35.210Z,140.90
2022-09-09T03:31:35.238Z,131.80
2022-09-09T03:32:35.202Z,142.50
2022-09-09T03:33:35.197Z,134.20
2022-09-09T03:34:35.192Z,127.80
2022-09-09T03:35:35.192Z,130.80
2022-09-09T03:36:35.179Z,124.00
2022-09-09T03:37:35.180Z,127.10
2022-09-09T03:38:35.268Z,129.80
2022-09-09T03:39:35.219Z,126.50
2022-09-09T03:40:35.155Z,130.80
2022-09-09T03:41:35.160Z,128.10
2022-09-09T03:42:35.147Z,140.50
2022-09-09T03:43:35.142Z,137.40
2022-09-09T03:44:35.139Z,136.10
2022-09-09T03:45:35.166Z,133.30
2022-09-09T03:46:35.127Z,137.10
2022-09-09T03:47:35.119Z,127.90
2022-09-09T03:48:35.271Z,130.10
2022-09-09T03:49:35.111Z,125.10
2022-09-09T03:50:35.109Z,125.10
2022-09-09T03:51:35.099Z,119.90
2022-09-09T03:52:35.102Z,120.90
2022-09-09T03:53:35.088Z,119.70
2022-09-09T03:54:35.078Z,122.10
2022-09-09T03:55:35.075Z,122.20
2022-09-09T03:56:35.074Z,117.00
2022-09-09T03:57:35.065Z,115.20
2022-09-09T03:58:35.062Z,122.40
2022-09-09T03:59:35.064Z,116.50
2022-09-09T04:00:35.071Z,121.90
2022-09-09T04:01:35.095Z,124.80
2022-09-09T04:02:35.130Z,133.20
2022-09-09T04:03:35.037Z,127.90
2022-09-09T04:04:35.030Z,132.00
2022-09-09T04:05:35.023Z,110.10
2022-09-09T04:06:35.023Z,112.00
2022-09-09T04:07:35.013Z,113.60
2022-09-09T04:08:35.194Z,115.60
2022-09-09T04:09:35.003Z,116.10
2022-09-09T04:10:35.003Z,118.50
2022-09-09T04:11:34.988Z,119.30
2022-09-09T04:12:34.986Z,108.60
2022-09-09T04:13:34.980Z,111.20
2022-09-09T04:14:34.981Z,120.20
2022-09-09T04:15:34.969Z,128.60
2022-09-09T04:16:35.061Z,121.60
2022-09-09T04:17:34.958Z,119.30
2022-09-09T04:18:35.024Z,120.30
2022-09-09T04:19:34.948Z,119.80
2022-09-09T04:20:34.945Z,116.20
2022-09-09T04:21:34.935Z,127.40
2022-09-09T04:22:34.932Z,130.80
2022-09-09T04:23:34.926Z,135.40
2022-09-09T04:24:34.921Z,120.80
2022-09-09T04:25:34.914Z,125.40
2022-09-09T04:26:34.911Z,118.10
2022-09-09T04:27:34.903Z,117.40
2022-09-09T04:28:34.975Z,114.50
2022-09-09T04:29:34.894Z,133.40
2022-09-09T04:30:34.892Z,121.40
2022-09-09T04:31:34.928Z,109.10
2022-09-09T04:32:34.882Z,116.30
2022-09-09T04:33:39.442Z,114.70
2022-09-09T04:34:34.864Z,112.30
2022-09-09T04:35:34.863Z,125.10
2022-09-09T04:36:34.853Z,118.40
2022-09-09T04:37:34.847Z,115.20
2022-09-09T04:38:34.847Z,119.20
2022-09-09T04:39:34.858Z,115.20
2022-09-09T04:40:34.837Z,119.70
2022-09-09T04:41:34.829Z,140.10
2022-09-09T04:42:34.824Z,126.30
2022-09-09T04:43:34.821Z,125.30
2022-09-09T04:44:34.809Z,123.90
2022-09-09T04:45:34.880Z,123.40
2022-09-09T04:46:34.813Z,131.30
2022-09-09T04:47:34.797Z,122.30
2022-09-09T04:48:34.840Z,128.30
2022-09-09T04:49:34.786Z,126.20
2022-09-09T04:50:34.784Z,128.20
2022-09-09T04:51:34.779Z,122.10
2022-09-09T04:52:34.763Z,128.20
2022-09-09T04:53:34.761Z,116.20
2022-09-09T04:54:34.755Z,106.60
2022-09-09T04:55:34.756Z,112.10
2022-09-09T04:56:34.743Z,109.10
2022-09-09T04:57:34.748Z,114.50
2022-09-09T04:58:34.804Z,110.70
2022-09-09T04:59:34.732Z,112.00
2022-09-09T05:00:34.826Z,121.20
2022-09-09T05:01:34.718Z,115.30
2022-09-09T05:02:34.772Z,115.50
2022-09-09T05:03:34.707Z,125.40
2022-09-09T05:04:34.702Z,109.40
2022-09-09T05:05:34.696Z,104.10
2022-09-09T05:06:34.689Z,101.80
2022-09-09T05:07:34.682Z,105.00
2022-09-09T05:08:34.751Z,112.20
2022-09-09T05:09:34.674Z,110.50
2022-09-09T05:10:34.669Z,112.00
2022-09-09T05:11:34.669Z,104.40
2022-09-09T05:12:34.657Z,100.90
2022-09-09T05:13:38.328Z,109.90
2022-09-09T05:14:34.646Z,109.10
2022-09-09T05:15:34.646Z,106.70
2022-09-09T05:16:34.719Z,100.50
2022-09-09T05:17:34.630Z,96.40
2022-09-09T05:18:34.681Z,96.10
2022-09-09T05:19:34.619Z,96.00
2022-09-09T05:20:34.624Z,95.30
2022-09-09T05:21:34.609Z,92.20
2022-09-09T05:22:34.608Z,84.60
2022-09-09T05:23:34.599Z,83.30
2022-09-09T05:24:34.597Z,81.90
2022-09-09T05:25:34.583Z,78.40
2022-09-09T05:26:34.583Z,78.70
2022-09-09T05:27:34.579Z,79.00
2022-09-09T05:28:34.680Z,78.30
2022-09-09T05:29:34.583Z,79.60
2022-09-09T05:30:34.565Z,74.70
2022-09-09T05:31:34.630Z,78.40
2022-09-09T05:32:34.553Z,70.50
2022-09-09T05:33:34.550Z,68.50
2022-09-09T05:34:34.543Z,68.90
2022-09-09T05:35:34.538Z,69.20
2022-09-09T05:36:34.635Z,69.80
2022-09-09T05:37:34.529Z,72.70
2022-09-09T05:38:34.615Z,66.00
2022-09-09T05:39:34.535Z,58.80
2022-09-09T05:40:34.516Z,49.70
2022-09-09T05:41:34.514Z,42.90
2022-09-09T05:42:34.505Z,38.40
2022-09-09T05:43:34.503Z,34.00
2022-09-09T05:44:34.499Z,30.40
2022-09-09T05:45:34.496Z,25.10
2022-09-09T05:46:34.547Z,21.70
2022-09-09T05:47:34.486Z,19.20
2022-09-09T05:48:34.535Z,18.20
2022-09-09T05:49:34.480Z,18.00
2022-09-09T05:50:34.473Z,18.00
2022-09-09T05:51:34.473Z,17.70
2022-09-09T05:52:34.469Z,16.30
2022-09-09T05:53:34.465Z,14.40
2022-09-09T05:54:34.462Z,16.40
2022-09-09T05:55:34.461Z,15.10
2022-09-09T05:56:34.455Z,15.40
2022-09-09T05:57:34.452Z,16.00
2022-09-09T05:58:34.480Z,16.60
2022-09-09T05:59:34.446Z,15.10
2022-09-09T06:00:34.443Z,15.00
2022-09-09T06:01:34.463Z,14.30
2022-09-09T06:02:34.570Z,18.70
2022-09-09T06:03:34.433Z,16.20
2022-09-09T06:04:34.431Z,17.90
2022-09-09T06:05:34.441Z,18.00
2022-09-09T06:06:34.424Z,14.50
2022-09-09T06:07:34.421Z,15.30
2022-09-09T06:08:34.445Z,12.90
2022-09-09T06:09:34.418Z,12.10
2022-09-09T06:10:34.416Z,13.10
2022-09-09T06:11:34.412Z,15.50
2022-09-09T06:12:34.405Z,13.40
2022-09-09T06:13:34.408Z,14.60
2022-09-09T06:14:34.403Z,14.00
2022-09-09T06:15:34.400Z,13.20
2022-09-09T06:16:34.484Z,13.30
2022-09-09T06:17:34.394Z,12.60
2022-09-09T06:18:34.415Z,15.60
2022-09-09T06:19:34.389Z,16.50
2022-09-09T06:20:34.383Z,16.00
2022-09-09T06:21:34.383Z,14.20
2022-09-09T06:22:34.375Z,12.50
2022-09-09T06:23:34.374Z,13.50
2022-09-09T06:24:34.373Z,13.70
2022-09-09T06:25:34.366Z,9.90
2022-09-09T06:26:34.378Z,10.10
2022-09-09T06:27:34.375Z,8.00
2022-09-09T06:28:41.578Z,10.50
2022-09-09T06:30:27.293Z,11.10
2022-09-09T06:31:30.005Z,12.70
2022-09-09T06:33:20.471Z,14.60
2022-09-09T06:34:20.455Z,13.00
2022-09-09T06:36:24.474Z,13.40
2022-09-09T06:37:24.469Z,13.90
2022-09-09T06:39:17.594Z,12.00
2022-09-09T06:40:17.633Z,12.70
2022-09-09T06:42:10.512Z,12.70
2022-09-09T06:43:10.504Z,13.60
2022-09-09T06:45:14.533Z,14.30
2022-09-09T06:46:14.564Z,1999.90
2022-09-09T06:48:18.512Z,1999.90
2022-09-09T06:49:18.506Z,13.50
2022-09-09T06:51:22.506Z,9.20
2022-09-09T06:52:22.499Z,4.90
2022-09-09T06:54:15.613Z,5.30
2022-09-09T06:55:15.600Z,6.50
2022-09-09T06:57:33.684Z,7.20
2022-09-09T06:58:08.703Z,5.60
2022-09-09T07:00:12.727Z,6.10
2022-09-09T07:01:12.750Z,5.80
2022-09-09T07:02:12.767Z,6.40
2022-09-09T07:03:12.714Z,7.90
2022-09-09T07:04:12.718Z,6.70
2022-09-09T07:05:12.729Z,8.40
2022-09-09T07:06:12.712Z,5.30
2022-09-09T07:07:12.712Z,10.60
2022-09-09T07:08:12.714Z,10.50
2022-09-09T07:09:12.712Z,10.90
2022-09-09T07:10:12.712Z,10.90
2022-09-09T07:11:12.725Z,12.90
2022-09-09T07:12:12.712Z,7.80
2022-09-09T07:13:12.718Z,7.90
2022-09-09T07:14:12.711Z,10.00
2022-09-09T07:15:12.709Z,10.30
2022-09-09T07:16:12.762Z,9.90
2022-09-09T07:17:12.708Z,7.50
2022-09-09T07:18:12.713Z,5.30
2022-09-09T07:19:12.723Z,4.90
2022-09-09T07:20:12.712Z,5.10
2022-09-09T07:21:12.712Z,4.40
2022-09-09T07:22:12.716Z,7.10
2022-09-09T07:23:12.716Z,4.30
2022-09-09T07:24:13.826Z,5.90
2022-09-09T07:25:12.714Z,6.20
2022-09-09T07:26:12.716Z,5.30
2022-09-09T07:27:12.717Z,4.90
2022-09-09T07:28:12.712Z,4.20
2022-09-09T07:29:15.196Z,4.70
2022-09-09T07:30:17.550Z,4.10
2022-09-09T07:31:12.753Z,5.50
2022-09-09T07:32:12.709Z,4.30
2022-09-09T07:33:12.716Z,4.20
2022-09-09T07:34:12.717Z,4.90
2022-09-09T07:35:12.714Z,6.60
2022-09-09T07:36:12.711Z,5.40
2022-09-09T07:37:12.719Z,4.00
2022-09-09T07:38:12.716Z,4.10
2022-09-09T07:39:12.718Z,5.90
2022-09-09T07:40:12.816Z,5.10
2022-09-09T07:41:12.721Z,4.70
2022-09-09T07:42:12.710Z,5.40
2022-09-09T07:43:17.109Z,5.00
2022-09-09T07:44:12.703Z,5.00
2022-09-09T07:45:12.701Z,6.00
2022-09-09T07:46:12.719Z,4.80
2022-09-09T07:47:12.707Z,5.40
2022-09-09T07:48:12.699Z,5.60
2022-09-09T07:49:12.704Z,5.30
2022-09-09T07:50:12.698Z,6.20
2022-09-09T07:51:12.704Z,4.20
2022-09-09T07:52:14.027Z,5.40
2022-09-09T07:53:12.697Z,6.00
2022-09-09T07:54:12.700Z,4.90
2022-09-09T07:55:12.692Z,4.40
2022-09-09T07:56:12.692Z,5.40
2022-09-09T07:57:12.687Z,5.10
2022-09-09T07:58:12.691Z,5.50
2022-09-09T07:59:12.688Z,4.60
2022-09-09T08:00:12.690Z,4.90
2022-09-09T08:01:12.687Z,4.00
2022-09-09T08:02:12.688Z,5.10
2022-09-09T08:03:12.707Z,3.50
2022-09-09T08:04:12.681Z,4.60
2022-09-09T08:05:12.682Z,5.70
2022-09-09T08:06:12.679Z,4.60
2022-09-09T08:07:12.677Z,5.10
2022-09-09T08:08:12.678Z,4.40
2022-09-09T08:09:12.677Z,5.60
2022-09-09T08:10:12.673Z,3.90
2022-09-09T08:11:12.675Z,5.00
2022-09-09T08:12:12.695Z,6.30
2022-09-09T08:13:18.266Z,4.60
2022-09-09T08:14:12.672Z,4.40
2022-09-09T08:15:12.668Z,3.60
2022-09-09T08:16:12.747Z,4.20
2022-09-09T08:17:12.668Z,4.90
2022-09-09T08:18:12.665Z,3.90
2022-09-09T08:19:12.667Z,5.00
2022-09-09T08:20:12.663Z,3.80
2022-09-09T08:21:12.663Z,6.60
2022-09-09T08:22:12.657Z,5.10
2022-09-09T08:23:12.666Z,4.40
2022-09-09T08:24:12.652Z,4.70
2022-09-09T08:25:12.656Z,4.90
2022-09-09T08:26:12.657Z,5.30
2022-09-09T08:27:12.654Z,4.30
2022-09-09T08:28:12.651Z,3.80
2022-09-09T08:29:12.677Z,4.90
2022-09-09T08:30:13.969Z,3.80
2022-09-09T08:31:12.711Z,4.80
2022-09-09T08:32:12.645Z,3.40
2022-09-09T08:33:12.647Z,4.00
2022-09-09T08:34:12.640Z,4.70
2022-09-09T08:35:12.643Z,3.90
2022-09-09T08:36:12.648Z,4.60
2022-09-09T08:37:12.640Z,3.40
2022-09-09T08:38:12.640Z,6.70
2022-09-09T08:39:12.636Z,5.60
2022-09-09T08:40:12.681Z,6.20
2022-09-09T08:41:12.632Z,4.60
2022-09-09T08:42:12.628Z,5.30
2022-09-09T08:43:12.628Z,4.40
2022-09-09T08:44:12.624Z,5.40
2022-09-09T08:45:12.629Z,3.30
2022-09-09T08:46:12.677Z,6.20
2022-09-09T08:47:12.622Z,3.40
2022-09-09T08:48:12.619Z,5.70
2022-09-09T08:49:12.620Z,6.20
2022-09-09T08:50:12.618Z,3.20
2022-09-09T08:51:12.623Z,4.20
2022-09-09T08:52:12.618Z,4.70
2022-09-09T08:53:12.623Z,4.80
2022-09-09T08:54:12.606Z,2.90
2022-09-09T08:55:12.609Z,6.00
2022-09-09T08:56:12.614Z,5.80
2022-09-09T08:57:12.605Z,4.70
2022-09-09T08:58:12.607Z,4.20
2022-09-09T08:59:12.602Z,3.70
2022-09-09T09:00:12.598Z,4.40
2022-09-09T09:01:12.661Z,4.00
2022-09-09T09:02:16.506Z,3.50
2022-09-09T09:03:12.616Z,4.00
2022-09-09T09:04:12.640Z,5.40
2022-09-09T09:05:12.593Z,4.70
2022-09-09T09:06:12.595Z,3.80
2022-09-09T09:07:12.590Z,4.30
2022-09-09T09:08:12.585Z,6.10
2022-09-09T09:09:12.589Z,4.90
2022-09-09T09:10:37.596Z,4.00
2022-09-09T09:11:12.585Z,3.80
2022-09-09T09:12:12.580Z,3.70
2022-09-09T09:13:12.586Z,4.50
2022-09-09T09:14:12.580Z,3.90
2022-09-09T09:15:12.578Z,4.60
2022-09-09T09:16:12.626Z,4.20
2022-09-09T09:17:12.574Z,3.80
2022-09-09T09:18:12.592Z,4.70
2022-09-09T09:19:12.571Z,3.60
2022-09-09T09:20:12.573Z,4.90
2022-09-09T09:21:12.574Z,4.80
2022-09-09T09:22:12.571Z,3.60
2022-09-09T09:23:12.567Z,3.50
2022-09-09T09:24:12.565Z,3.20
2022-09-09T09:25:12.563Z,3.50
2022-09-09T09:26:12.565Z,4.10
2022-09-09T09:27:12.563Z,3.60
2022-09-09T09:28:12.565Z,3.80
2022-09-09T09:29:12.561Z,5.90
2022-09-09T09:30:25.340Z,4.40
2022-09-09T09:31:12.650Z,4.80
2022-09-09T09:32:12.557Z,3.60
2022-09-09T09:33:12.554Z,3.70
2022-09-09T09:34:12.554Z,4.80
2022-09-09T09:35:12.554Z,4.00
2022-09-09T09:36:12.551Z,4.50
2022-09-09T09:37:12.553Z,3.80
2022-09-09T09:40:12.558Z,3.70
2022-09-09T09:41:12.557Z,4.30
2022-09-09T09:42:12.551Z,6.10
2022-09-09T09:43:12.545Z,5.10
2022-09-09T09:44:12.547Z,4.60
2022-09-09T09:45:12.543Z,3.20
2022-09-09T09:46:17.872Z,4.30
2022-09-09T09:47:12.542Z,4.00
2022-09-09T09:48:13.829Z,5.00
2022-09-09T09:49:12.543Z,3.10
2022-09-09T09:50:12.597Z,4.00
2022-09-09T09:51:12.542Z,3.00
2022-09-09T09:52:12.539Z,3.80
2022-09-09T09:53:12.540Z,3.40
2022-09-09T09:54:12.539Z,4.10
2022-09-09T09:55:12.537Z,3.80
2022-09-09T09:56:12.537Z,3.80
2022-09-09T09:57:12.538Z,4.60
2022-09-09T09:58:15.132Z,4.60
2022-09-09T09:59:18.005Z,3.90
2022-09-09T10:00:12.611Z,4.40
2022-09-09T10:01:12.553Z,4.40
2022-09-09T10:02:12.530Z,3.10
2022-09-09T10:03:12.531Z,4.00
2022-09-09T10:04:12.553Z,3.70
2022-09-09T10:05:12.529Z,4.60
2022-09-09T10:06:12.529Z,3.30
2022-09-09T10:07:12.526Z,5.90
2022-09-09T10:08:12.525Z,5.90
2022-09-09T10:09:12.527Z,3.70
2022-09-09T10:10:12.594Z,4.40
2022-09-09T10:11:12.530Z,4.30
2022-09-09T10:12:12.521Z,4.00
2022-09-09T10:13:12.526Z,4.70
2022-09-09T10:14:12.524Z,4.00
2022-09-09T10:15:12.519Z,3.10
2022-09-09T10:16:12.558Z,4.40
2022-09-09T10:17:12.521Z,5.10
2022-09-09T10:18:12.514Z,3.30
2022-09-09T10:19:12.516Z,4.30
2022-09-09T10:20:12.521Z,3.80
2022-09-09T10:21:12.515Z,4.20
2022-09-09T10:22:12.513Z,5.80
2022-09-09T10:23:12.511Z,3.50
2022-09-09T10:24:12.507Z,4.70
2022-09-09T10:25:12.509Z,3.30
2022-09-09T10:26:12.512Z,5.10
2022-09-09T10:27:12.507Z,4.30
2022-09-09T10:28:12.505Z,4.40
2022-09-09T10:29:12.523Z,5.50
2022-09-09T10:30:12.506Z,6.10
2022-09-09T10:31:12.548Z,6.00
2022-09-09T10:32:12.500Z,3.70
2022-09-09T10:33:12.509Z,4.50
2022-09-09T10:34:12.501Z,6.50
2022-09-09T10:35:12.500Z,6.10
2022-09-09T10:36:12.495Z,3.40
2022-09-09T10:37:12.495Z,4.40
2022-09-09T10:38:12.495Z,2.90
2022-09-09T10:39:12.499Z,4.00
2022-09-09T10:40:12.584Z,2.70
2022-09-09T10:41:12.496Z,4.10
2022-09-09T10:42:12.495Z,5.10
2022-09-09T10:43:12.493Z,3.70
2022-09-09T10:44:12.494Z,4.70
2022-09-09T10:45:12.492Z,4.40
2022-09-09T10:46:12.552Z,3.40
2022-09-09T10:47:12.490Z,3.90
2022-09-09T10:48:12.488Z,5.40
2022-09-09T10:49:12.488Z,4.20
2022-09-09T10:50:12.489Z,3.30
2022-09-09T10:51:12.488Z,4.90
2022-09-09T10:52:12.483Z,4.30
2022-09-09T10:53:12.488Z,3.60
2022-09-09T10:54:12.485Z,3.70
2022-09-09T10:55:12.490Z,3.20
2022-09-09T10:56:12.481Z,4.30
2022-09-09T10:57:12.482Z,3.80
2022-09-09T10:58:12.480Z,2.80
2022-09-09T10:59:12.481Z,3.80
2022-09-09T11:00:12.477Z,3.30
2022-09-09T11:01:12.548Z,3.70
2022-09-09T11:02:12.477Z,3.50
2022-09-09T11:03:12.481Z,3.60
2022-09-09T11:04:12.537Z,3.00
2022-09-09T11:05:12.476Z,3.20
2022-09-09T11:06:12.489Z,2.80
2022-09-09T11:07:12.490Z,3.50
2022-09-09T11:08:12.535Z,4.60
2022-09-09T11:09:12.487Z,3.80
2022-09-09T11:10:12.472Z,3.80
2022-09-09T11:11:12.472Z,3.20
2022-09-09T11:12:12.470Z,4.00
2022-09-09T11:13:12.470Z,3.70
2022-09-09T11:14:12.469Z,2.10
2022-09-09T11:15:12.470Z,3.30
2022-09-09T11:16:12.468Z,4.70
2022-09-09T11:17:12.467Z,4.70
2022-09-09T11:18:12.467Z,3.80
2022-09-09T11:19:12.469Z,3.80
2022-09-09T11:20:12.478Z,3.70
2022-09-09T11:21:12.463Z,3.50
2022-09-09T11:22:12.471Z,3.40
2022-09-09T11:23:12.491Z,4.20
2022-09-09T11:24:12.489Z,4.90
2022-09-09T11:25:12.480Z,3.00
2022-09-09T11:26:12.461Z,3.60
2022-09-09T11:27:12.461Z,3.20
2022-09-09T11:28:12.476Z,4.70
2022-09-09T11:29:12.545Z,5.60
2022-09-09T11:30:12.461Z,3.60
2022-09-09T11:31:12.489Z,2.70
2022-09-09T11:32:12.458Z,4.90
2022-09-09T11:33:12.456Z,3.60
2022-09-09T11:34:12.458Z,3.20
2022-09-09T11:35:12.460Z,4.40
2022-09-09T11:36:12.459Z,4.70
2022-09-09T11:37:12.457Z,3.50
2022-09-09T11:38:12.467Z,3.00
2022-09-09T11:39:12.458Z,3.40
2022-09-09T11:40:12.517Z,3.60
2022-09-09T11:41:12.466Z,2.90
2022-09-09T11:42:12.452Z,3.70
2022-09-09T11:43:12.454Z,3.20
2022-09-09T11:44:12.453Z,2.10
2022-09-09T11:45:12.449Z,3.40
2022-09-09T11:46:12.495Z,4.00
2022-09-09T11:47:12.452Z,3.60
2022-09-09T11:48:12.479Z,2.40
2022-09-09T11:49:12.456Z,2.50
2022-09-09T11:50:12.449Z,3.00
2022-09-09T11:51:16.887Z,3.00
2022-09-09T11:52:12.448Z,3.40
2022-09-09T11:53:12.448Z,3.40
2022-09-09T11:54:12.447Z,3.10
2022-09-09T11:55:12.447Z,2.80
2022-09-09T11:56:12.448Z,2.80
2022-09-09T11:57:12.448Z,1.90
2022-09-09T11:58:12.443Z,4.30
2022-09-09T11:59:12.451Z,2.40
2022-09-09T12:00:12.448Z,4.10
2022-09-09T12:01:12.446Z,2.60
2022-09-09T12:02:12.471Z,2.50
2022-09-09T12:03:12.445Z,3.30
2022-09-09T12:04:12.444Z,2.70
2022-09-09T12:05:12.485Z,2.40
2022-09-09T12:06:12.444Z,3.30
2022-09-09T12:07:12.442Z,4.00
2022-09-09T12:08:12.441Z,2.50
2022-09-09T12:09:12.451Z,3.80
2022-09-09T12:10:12.443Z,3.70
2022-09-09T12:11:12.445Z,3.10
2022-09-09T12:12:12.442Z,3.20
2022-09-09T12:13:12.443Z,3.50
2022-09-09T12:14:12.446Z,3.90
2022-09-09T12:15:12.443Z,3.40
2022-09-09T12:16:12.468Z,1.60
2022-09-09T12:17:12.442Z,3.40
2022-09-09T12:18:12.443Z,3.30
2022-09-09T12:19:12.445Z,2.80
2022-09-09T12:20:12.445Z,2.80
2022-09-09T12:21:12.440Z,4.10
2022-09-09T12:22:12.440Z,2.00
2022-09-09T12:23:12.443Z,3.00
2022-09-09T12:24:12.441Z,4.60
2022-09-09T12:25:12.442Z,3.70
2022-09-09T12:26:12.442Z,2.40
2022-09-09T12:27:12.448Z,2.70
2022-09-09T12:28:12.438Z,4.90
2022-09-09T12:29:19.618Z,2.50
2022-09-09T12:31:16.493Z,3.30
2022-09-09T12:32:16.433Z,3.50
2022-09-09T12:33:16.439Z,3.60
2022-09-09T12:34:16.437Z,3.40
2022-09-09T12:35:17.054Z,3.80
2022-09-09T12:36:16.433Z,2.50
2022-09-09T12:37:16.433Z,3.40
2022-09-09T12:38:16.429Z,2.90
2022-09-09T12:39:16.430Z,3.00
2022-09-09T12:40:16.489Z,3.10
2022-09-09T12:41:16.433Z,4.20
2022-09-09T12:42:16.430Z,2.70
2022-09-09T12:43:16.438Z,1.90
2022-09-09T12:44:16.440Z,2.50
2022-09-09T12:45:16.434Z,2.10
2022-09-09T12:46:16.478Z,2.70
2022-09-09T12:47:16.434Z,2.90
2022-09-09T12:48:16.453Z,3.40
2022-09-09T12:49:16.435Z,3.10
2022-09-09T12:50:16.435Z,3.10
2022-09-09T12:51:16.437Z,4.10
2022-09-09T12:52:16.458Z,3.40
2022-09-09T12:53:16.436Z,3.40
2022-09-09T12:54:16.434Z,2.60
2022-09-09T12:55:16.437Z,2.60
2022-09-09T12:56:16.436Z,3.20
2022-09-09T12:57:16.434Z,3.70
2022-09-09T12:58:16.440Z,3.00
2022-09-09T12:59:16.467Z,2.60
2022-09-09T13:00:16.806Z,3.30
2022-09-09T13:01:16.492Z,3.00
2022-09-09T13:02:16.559Z,2.90
2022-09-09T13:03:16.531Z,2.90
2022-09-09T13:04:16.438Z,3.80
2022-09-09T13:05:16.440Z,3.70
2022-09-09T13:06:16.442Z,3.20
2022-09-09T13:07:16.432Z,3.10
2022-09-09T13:08:16.441Z,1.80